sensor_id;sensor_type;location;lat;lon;timestamp;pressure;altitude;pressure_sealevel;temperature;humidity
74708;BME280;63360;50.104;8.074;2023-04-16T00:00:57;97241.06;;;6.44;100.00
74708;BME280;63360;50.104;8.074;2023-04-16T00:03:23;97237.38;;;6.50;100.00
74708;BME280;63360;50.104;8.074;2023-04-16T00:05:50;97229.59;;;6.32;100.00
74708;BME280;63360;50.104;8.074;2023-04-16T00:08:16;97242.38;;;6.42;100.00
74708;BME280;63360;50.104;8.074;2023-04-16T00:10:43;97249.59;;;6.45;100.00
74708;BME280;63360;50.104;8.074;2023-04-16T00:13:09;97248.00;;;6.49;100.00
74708;BME280;63360;50.104;8.074;2023-04-16T00:15:36;97251.13;;;6.46;100.00
74708;BME280;63360;50.104;8.074;2023-04-16T00:18:02;97248.56;;;6.46;100.00
74708;BME280;63360;50.104;8.074;2023-04-16T00:20:28;97230.25;;;6.42;100.00
74708;BME280;63360;50.104;8.074;2023-04-16T00:22:55;97230.25;;;6.42;100.00
74708;BME280;63360;50.104;8.074;2023-04-16T00:25:21;97233.13;;;6.41;100.00
74708;BME280;63360;50.104;8.074;2023-04-16T00:27:47;97228.81;;;6.31;100.00
74708;BME280;63360;50.104;8.074;2023-04-16T00:30:14;97240.03;;;6.45;100.00
74708;BME280;63360;50.104;8.074;2023-04-16T00:32:40;97239.53;;;6.43;100.00
74708;BME280;63360;50.104;8.074;2023-04-16T00:35:07;97244.47;;;6.40;100.00
74708;BME280;63360;50.104;8.074;2023-04-16T00:37:33;97227.78;;;6.32;100.00
74708;BME280;63360;50.104;8.074;2023-04-16T00:40:00;97231.56;;;6.40;100.00
74708;BME280;63360;50.104;8.074;2023-04-16T00:42:26;97240.34;;;6.39;100.00
74708;BME280;63360;50.104;8.074;2023-04-16T00:44:53;97246.56;;;6.38;100.00
74708;BME280;63360;50.104;8.074;2023-04-16T00:47:20;97244.25;;;6.36;100.00
74708;BME280;63360;50.104;8.074;2023-04-16T00:49:47;97244.53;;;6.35;100.00
74708;BME280;63360;50.104;8.074;2023-04-16T00:52:13;97231.63;;;6.35;100.00
74708;BME280;63360;50.104;8.074;2023-04-16T00:54:40;97236.38;;;6.28;100.00
74708;BME280;63360;50.104;8.074;2023-04-16T00:57:07;97236.25;;;6.38;100.00
74708;BME280;63360;50.104;8.074;2023-04-16T00:59:34;97241.97;;;6.35;100.00
74708;BME280;63360;50.104;8.074;2023-04-16T01:02:00;97247.41;;;6.33;100.00
74708;BME280;63360;50.104;8.074;2023-04-16T01:04:28;97246.34;;;6.34;100.00
74708;BME280;63360;50.104;8.074;2023-04-16T01:06:56;97237.88;;;6.29;100.00
74708;BME280;63360;50.104;8.074;2023-04-16T01:09:22;97233.50;;;6.29;100.00
74708;BME280;63360;50.104;8.074;2023-04-16T01:11:49;97239.91;;;6.32;100.00
74708;BME280;63360;50.104;8.074;2023-04-16T01:14:15;97236.13;;;6.24;100.00
74708;BME280;63360;50.104;8.074;2023-04-16T01:16:41;97240.25;;;6.25;100.00
74708;BME280;63360;50.104;8.074;2023-04-16T01:19:08;97251.28;;;6.31;100.00
74708;BME280;63360;50.104;8.074;2023-04-16T01:21:34;97238.44;;;6.26;100.00
74708;BME280;63360;50.104;8.074;2023-04-16T01:24:05;97251.50;;;6.34;100.00
74708;BME280;63360;50.104;8.074;2023-04-16T01:26:31;97265.69;;;6.37;100.00
74708;BME280;63360;50.104;8.074;2023-04-16T01:28:59;97255.91;;;6.34;100.00
74708;BME280;63360;50.104;8.074;2023-04-16T01:31:25;97255.91;;;6.34;100.00
74708;BME280;63360;50.104;8.074;2023-04-16T01:33:52;97255.66;;;6.35;100.00
74708;BME280;63360;50.104;8.074;2023-04-16T01:36:18;97257.78;;;6.28;100.00
74708;BME280;63360;50.104;8.074;2023-04-16T01:38:44;97250.63;;;6.20;100.00
74708;BME280;63360;50.104;8.074;2023-04-16T01:41:11;97263.16;;;6.32;100.00
74708;BME280;63360;50.104;8.074;2023-04-16T01:43:37;97249.09;;;6.19;100.00
74708;BME280;63360;50.104;8.074;2023-04-16T01:46:22;97266.78;;;6.31;100.00
74708;BME280;63360;50.104;8.074;2023-04-16T01:48:49;97263.00;;;6.23;100.00
74708;BME280;63360;50.104;8.074;2023-04-16T01:51:20;97260.94;;;6.20;100.00
74708;BME280;63360;50.104;8.074;2023-04-16T01:53:48;97267.06;;;6.29;100.00
74708;BME280;63360;50.104;8.074;2023-04-16T01:56:15;97258.72;;;6.14;100.00
74708;BME280;63360;50.104;8.074;2023-04-16T01:58:41;97272.78;;;6.26;100.00
74708;BME280;63360;50.104;8.074;2023-04-16T02:01:08;97262.44;;;6.26;100.00
74708;BME280;63360;50.104;8.074;2023-04-16T02:03:35;97264.84;;;6.23;100.00
74708;BME280;63360;50.104;8.074;2023-04-16T02:06:02;97262.25;;;6.23;100.00
74708;BME280;63360;50.104;8.074;2023-04-16T02:08:28;97257.81;;;6.23;100.00
74708;BME280;63360;50.104;8.074;2023-04-16T02:10:55;97266.09;;;6.25;100.00
74708;BME280;63360;50.104;8.074;2023-04-16T02:13:22;97258.16;;;6.17;100.00
74708;BME280;63360;50.104;8.074;2023-04-16T02:15:51;97276.69;;;6.24;100.00
74708;BME280;63360;50.104;8.074;2023-04-16T02:18:17;97283.13;;;6.26;100.00
74708;BME280;63360;50.104;8.074;2023-04-16T02:20:45;97276.13;;;6.27;100.00
74708;BME280;63360;50.104;8.074;2023-04-16T02:23:12;97266.91;;;6.21;100.00
74708;BME280;63360;50.104;8.074;2023-04-16T02:25:41;97282.56;;;6.29;100.00
74708;BME280;63360;50.104;8.074;2023-04-16T02:28:09;97276.69;;;6.24;100.00
74708;BME280;63360;50.104;8.074;2023-04-16T02:30:36;97292.97;;;6.24;100.00
74708;BME280;63360;50.104;8.074;2023-04-16T02:33:03;97289.78;;;6.32;100.00
74708;BME280;63360;50.104;8.074;2023-04-16T02:35:30;97274.09;;;6.24;100.00
74708;BME280;63360;50.104;8.074;2023-04-16T02:38:00;97282.84;;;6.28;100.00
74708;BME280;63360;50.104;8.074;2023-04-16T02:40:27;97289.78;;;6.32;100.00
74708;BME280;63360;50.104;8.074;2023-04-16T02:42:53;97268.69;;;6.25;100.00
74708;BME280;63360;50.104;8.074;2023-04-16T02:45:20;97290.25;;;6.34;100.00
74708;BME280;63360;50.104;8.074;2023-04-16T02:47:48;97287.44;;;6.31;100.00
74708;BME280;63360;50.104;8.074;2023-04-16T02:50:15;97274.09;;;6.24;100.00
74708;BME280;63360;50.104;8.074;2023-04-16T02:52:41;97270.00;;;6.23;100.00
74708;BME280;63360;50.104;8.074;2023-04-16T02:55:08;97287.75;;;6.29;100.00
74708;BME280;63360;50.104;8.074;2023-04-16T02:57:35;97295.50;;;6.29;100.00
74708;BME280;63360;50.104;8.074;2023-04-16T03:00:02;97281.63;;;6.20;100.00
74708;BME280;63360;50.104;8.074;2023-04-16T03:02:30;97280.81;;;6.25;100.00
74708;BME280;63360;50.104;8.074;2023-04-16T03:04:57;97278.28;;;6.20;100.00
74708;BME280;63360;50.104;8.074;2023-04-16T03:07:23;97288.03;;;6.28;100.00
74708;BME280;63360;50.104;8.074;2023-04-16T03:09:49;97285.81;;;6.16;100.00
74708;BME280;63360;50.104;8.074;2023-04-16T03:12:16;97271.09;;;6.17;100.00
74708;BME280;63360;50.104;8.074;2023-04-16T03:14:42;97278.00;;;6.21;100.00
74708;BME280;63360;50.104;8.074;2023-04-16T03:17:09;97274.03;;;6.29;100.00
74708;BME280;63360;50.104;8.074;2023-04-16T03:19:35;97287.38;;;6.41;100.00
74708;BME280;63360;50.104;8.074;2023-04-16T03:22:02;97282.81;;;6.33;100.00
74708;BME280;63360;50.104;8.074;2023-04-16T03:24:28;97277.94;;;6.26;100.00
74708;BME280;63360;50.104;8.074;2023-04-16T03:26:56;97276.38;;;6.30;100.00
74708;BME280;63360;50.104;8.074;2023-04-16T03:29:23;97283.34;;;6.30;100.00
74708;BME280;63360;50.104;8.074;2023-04-16T03:31:49;97280.88;;;6.20;100.00
74708;BME280;63360;50.104;8.074;2023-04-16T03:34:15;97285.97;;;6.25;100.00
74708;BME280;63360;50.104;8.074;2023-04-16T03:36:42;97280.75;;;6.30;100.00
74708;BME280;63360;50.104;8.074;2023-04-16T03:39:08;97287.50;;;6.26;100.00
74708;BME280;63360;50.104;8.074;2023-04-16T03:41:35;97285.69;;;6.26;100.00
74708;BME280;63360;50.104;8.074;2023-04-16T03:44:01;97284.91;;;6.26;100.00
74708;BME280;63360;50.104;8.074;2023-04-16T03:46:28;97287.00;;;6.24;100.00
74708;BME280;63360;50.104;8.074;2023-04-16T03:48:54;97286.97;;;6.29;100.00
74708;BME280;63360;50.104;8.074;2023-04-16T03:51:21;97281.03;;;6.28;100.00
74708;BME280;63360;50.104;8.074;2023-04-16T03:53:47;97275.91;;;6.23;100.00
74708;BME280;63360;50.104;8.074;2023-04-16T03:56:13;97295.50;;;6.29;100.00
74708;BME280;63360;50.104;8.074;2023-04-16T03:58:40;97303.72;;;6.31;100.00
74708;BME280;63360;50.104;8.074;2023-04-16T04:01:06;97299.16;;;6.23;100.00
74708;BME280;63360;50.104;8.074;2023-04-16T04:03:32;97292.41;;;6.27;100.00
74708;BME280;63360;50.104;8.074;2023-04-16T04:05:59;97304.84;;;6.25;100.00
74708;BME280;63360;50.104;8.074;2023-04-16T04:08:26;97290.88;;;6.26;100.00
74708;BME280;63360;50.104;8.074;2023-04-16T04:10:52;97289.06;;;6.27;100.00
74708;BME280;63360;50.104;8.074;2023-04-16T04:13:18;97295.50;;;6.29;100.00
74708;BME280;63360;50.104;8.074;2023-04-16T04:15:45;97282.19;;;6.17;100.00
74708;BME280;63360;50.104;8.074;2023-04-16T04:18:11;97302.28;;;6.20;100.00
74708;BME280;63360;50.104;8.074;2023-04-16T04:20:39;97299.66;;;6.25;100.00
74708;BME280;63360;50.104;8.074;2023-04-16T04:23:06;97288.34;;;6.21;100.00
74708;BME280;63360;50.104;8.074;2023-04-16T04:25:32;97301.47;;;6.25;100.00
74708;BME280;63360;50.104;8.074;2023-04-16T04:27:59;97311.53;;;6.26;100.00
74708;BME280;63360;50.104;8.074;2023-04-16T04:30:25;97305.63;;;6.21;100.00
74708;BME280;63360;50.104;8.074;2023-04-16T04:32:51;97307.78;;;6.14;100.00
74708;BME280;63360;50.104;8.074;2023-04-16T04:35:18;97296.22;;;6.06;100.00
74708;BME280;63360;50.104;8.074;2023-04-16T04:37:44;97292.81;;;6.10;100.00
74708;BME280;63360;50.104;8.074;2023-04-16T04:40:11;97301.59;;;6.15;100.00
74708;BME280;63360;50.104;8.074;2023-04-16T04:42:37;97311.34;;;6.18;100.00
74708;BME280;63360;50.104;8.074;2023-04-16T04:45:04;97308.59;;;6.09;100.00
74708;BME280;63360;50.104;8.074;2023-04-16T04:47:31;97320.63;;;6.19;100.00
74708;BME280;63360;50.104;8.074;2023-04-16T04:49:57;97313.03;;;6.03;100.00
74708;BME280;63360;50.104;8.074;2023-04-16T04:52:23;97321.50;;;6.09;100.00
74708;BME280;63360;50.104;8.074;2023-04-16T04:54:51;97322.81;;;6.06;100.00
74708;BME280;63360;50.104;8.074;2023-04-16T04:57:17;97326.97;;;6.02;100.00
74708;BME280;63360;50.104;8.074;2023-04-16T04:59:44;97328.88;;;6.21;100.00
74708;BME280;63360;50.104;8.074;2023-04-16T05:02:10;97336.72;;;6.10;100.00
74708;BME280;63360;50.104;8.074;2023-04-16T05:04:37;97339.75;;;6.18;100.00
74708;BME280;63360;50.104;8.074;2023-04-16T05:07:03;97354.63;;;6.31;100.00
74708;BME280;63360;50.104;8.074;2023-04-16T05:09:30;97363.69;;;6.28;100.00
74708;BME280;63360;50.104;8.074;2023-04-16T05:11:56;97368.50;;;6.40;100.00
74708;BME280;63360;50.104;8.074;2023-04-16T05:14:23;97357.66;;;6.38;100.00
74708;BME280;63360;50.104;8.074;2023-04-16T05:16:49;97366.25;;;6.28;100.00
74708;BME280;63360;50.104;8.074;2023-04-16T05:19:16;97367.13;;;6.19;100.00
74708;BME280;63360;50.104;8.074;2023-04-16T05:21:42;97381.75;;;6.28;100.00
74708;BME280;63360;50.104;8.074;2023-04-16T05:24:09;97365.50;;;6.28;100.00
74708;BME280;63360;50.104;8.074;2023-04-16T05:26:36;97373.47;;;6.31;100.00
74708;BME280;63360;50.104;8.074;2023-04-16T05:29:03;97372.25;;;6.24;100.00
74708;BME280;63360;50.104;8.074;2023-04-16T05:31:29;97386.66;;;6.30;100.00
74708;BME280;63360;50.104;8.074;2023-04-16T05:33:56;97381.00;;;6.28;100.00
74708;BME280;63360;50.104;8.074;2023-04-16T05:36:22;97375.91;;;6.23;100.00
74708;BME280;63360;50.104;8.074;2023-04-16T05:38:48;97381.75;;;6.28;100.00
74708;BME280;63360;50.104;8.074;2023-04-16T05:41:15;97383.03;;;6.31;100.00
74708;BME280;63360;50.104;8.074;2023-04-16T05:43:41;97378.69;;;6.26;100.00
74708;BME280;63360;50.104;8.074;2023-04-16T05:46:08;97390.88;;;6.21;100.00
74708;BME280;63360;50.104;8.074;2023-04-16T05:48:34;97386.81;;;6.15;100.00
74708;BME280;63360;50.104;8.074;2023-04-16T05:51:00;97404.25;;;6.28;100.00
74708;BME280;63360;50.104;8.074;2023-04-16T05:53:27;97400.13;;;6.27;100.00
74708;BME280;63360;50.104;8.074;2023-04-16T05:55:54;97402.44;;;6.28;100.00
74708;BME280;63360;50.104;8.074;2023-04-16T05:58:20;97400.63;;;6.29;100.00
74708;BME280;63360;50.104;8.074;2023-04-16T06:00:47;97397.53;;;6.27;100.00
74708;BME280;63360;50.104;8.074;2023-04-16T06:03:13;97399.63;;;6.25;100.00
74708;BME280;63360;50.104;8.074;2023-04-16T06:05:40;97401.44;;;6.24;100.00
74708;BME280;63360;50.104;8.074;2023-04-16T06:08:07;97403.75;;;6.26;100.00
74708;BME280;63360;50.104;8.074;2023-04-16T06:10:33;97397.31;;;6.23;100.00
74708;BME280;63360;50.104;8.074;2023-04-16T06:12:59;97397.38;;;6.13;100.00
74708;BME280;63360;50.104;8.074;2023-04-16T06:15:26;97408.16;;;6.25;100.00
74708;BME280;63360;50.104;8.074;2023-04-16T06:17:53;97404.56;;;6.21;100.00
74708;BME280;63360;50.104;8.074;2023-04-16T06:20:19;97407.59;;;6.28;100.00
74708;BME280;63360;50.104;8.074;2023-04-16T06:22:46;97398.31;;;6.27;100.00
74708;BME280;63360;50.104;8.074;2023-04-16T06:25:12;97393.44;;;6.21;100.00
74708;BME280;63360;50.104;8.074;2023-04-16T06:27:40;97401.88;;;6.31;100.00
74708;BME280;63360;50.104;8.074;2023-04-16T06:30:11;97406.56;;;6.29;100.00
74708;BME280;63360;50.104;8.074;2023-04-16T06:32:38;97401.69;;;6.28;100.00
74708;BME280;63360;50.104;8.074;2023-04-16T06:35:05;97404.25;;;6.28;100.00
74708;BME280;63360;50.104;8.074;2023-04-16T06:37:31;97414.75;;;6.36;100.00
74708;BME280;63360;50.104;8.074;2023-04-16T06:39:58;97417.19;;;6.28;100.00
74708;BME280;63360;50.104;8.074;2023-04-16T06:42:24;97405.81;;;6.24;100.00
74708;BME280;63360;50.104;8.074;2023-04-16T06:44:51;97408.16;;;6.25;100.00
74708;BME280;63360;50.104;8.074;2023-04-16T06:47:17;97417.66;;;6.30;100.00
74708;BME280;63360;50.104;8.074;2023-04-16T06:49:44;97412.25;;;6.26;100.00
74708;BME280;63360;50.104;8.074;2023-04-16T06:52:10;97419.44;;;6.34;100.00
74708;BME280;63360;50.104;8.074;2023-04-16T06:54:37;97419.91;;;6.41;100.00
74708;BME280;63360;50.104;8.074;2023-04-16T06:57:03;97421.69;;;6.46;100.00
74708;BME280;63360;50.104;8.074;2023-04-16T06:59:30;97415.25;;;6.43;100.00
74708;BME280;63360;50.104;8.074;2023-04-16T07:01:56;97408.25;;;6.44;100.00
74708;BME280;63360;50.104;8.074;2023-04-16T07:04:23;97410.47;;;6.55;100.00
74708;BME280;63360;50.104;8.074;2023-04-16T07:06:50;97419.53;;;6.53;100.00
74708;BME280;63360;50.104;8.074;2023-04-16T07:09:16;97416.41;;;6.56;100.00
74708;BME280;63360;50.104;8.074;2023-04-16T07:11:43;97420.25;;;6.58;100.00
74708;BME280;63360;50.104;8.074;2023-04-16T07:14:09;97421.09;;;6.54;100.00
74708;BME280;63360;50.104;8.074;2023-04-16T07:16:36;97433.69;;;6.60;100.00
74708;BME280;63360;50.104;8.074;2023-04-16T07:19:03;97419.91;;;6.70;100.00
74708;BME280;63360;50.104;8.074;2023-04-16T07:21:29;97429.72;;;6.73;100.00
74708;BME280;63360;50.104;8.074;2023-04-16T07:23:57;97435.13;;;6.71;100.00
74708;BME280;63360;50.104;8.074;2023-04-16T07:26:23;97418.06;;;6.76;100.00
74708;BME280;63360;50.104;8.074;2023-04-16T07:28:49;97422.22;;;6.71;100.00
74708;BME280;63360;50.104;8.074;2023-04-16T07:31:16;97430.19;;;6.75;100.00
74708;BME280;63360;50.104;8.074;2023-04-16T07:33:42;97421.91;;;6.78;100.00
74708;BME280;63360;50.104;8.074;2023-04-16T07:36:09;97429.72;;;6.73;100.00
74708;BME280;63360;50.104;8.074;2023-04-16T07:38:36;97441.84;;;6.72;100.00
74708;BME280;63360;50.104;8.074;2023-04-16T07:41:02;97441.56;;;6.74;100.00
74708;BME280;63360;50.104;8.074;2023-04-16T07:43:28;97422.53;;;6.65;100.00
74708;BME280;63360;50.104;8.074;2023-04-16T07:45:55;97437.41;;;6.78;100.00
74708;BME280;63360;50.104;8.074;2023-04-16T07:48:22;97434.59;;;6.75;100.00
74708;BME280;63360;50.104;8.074;2023-04-16T07:50:48;97439.94;;;6.83;100.00
74708;BME280;63360;50.104;8.074;2023-04-16T07:53:15;97435.84;;;6.77;100.00
74708;BME280;63360;50.104;8.074;2023-04-16T07:55:41;97447.97;;;6.82;100.00
74708;BME280;63360;50.104;8.074;2023-04-16T07:58:08;97435.81;;;6.82;100.00
74708;BME280;63360;50.104;8.074;2023-04-16T08:00:34;97440.97;;;6.82;100.00
74708;BME280;63360;50.104;8.074;2023-04-16T08:03:01;97443.91;;;6.76;100.00
74708;BME280;63360;50.104;8.074;2023-04-16T08:05:27;97439.53;;;6.71;100.00
74708;BME280;63360;50.104;8.074;2023-04-16T08:07:54;97446.78;;;6.69;100.00
74708;BME280;63360;50.104;8.074;2023-04-16T08:10:20;97463.47;;;6.82;100.00
74708;BME280;63360;50.104;8.074;2023-04-16T08:12:47;97457.09;;;6.74;100.00
74708;BME280;63360;50.104;8.074;2023-04-16T08:15:13;97464.38;;;6.96;100.00
74708;BME280;63360;50.104;8.074;2023-04-16T08:17:40;97450.66;;;6.95;100.00
74708;BME280;63360;50.104;8.074;2023-04-16T08:20:06;97467.97;;;7.00;100.00
74708;BME280;63360;50.104;8.074;2023-04-16T08:22:33;97469.78;;;6.99;100.00
74708;BME280;63360;50.104;8.074;2023-04-16T08:24:59;97457.22;;;6.88;100.00
74708;BME280;63360;50.104;8.074;2023-04-16T08:27:26;97472.09;;;7.01;100.00
74708;BME280;63360;50.104;8.074;2023-04-16T08:29:52;97477.00;;;7.02;100.00
74708;BME280;63360;50.104;8.074;2023-04-16T08:32:18;97473.69;;;6.97;100.00
74708;BME280;63360;50.104;8.074;2023-04-16T08:34:45;97477.81;;;6.98;100.00
74708;BME280;63360;50.104;8.074;2023-04-16T08:37:12;97484.03;;;6.97;100.00
74708;BME280;63360;50.104;8.074;2023-04-16T08:39:38;97495.19;;;6.92;100.00
74708;BME280;63360;50.104;8.074;2023-04-16T08:42:05;97501.41;;;6.91;100.00
74708;BME280;63360;50.104;8.074;2023-04-16T08:44:42;97498.28;;;6.94;100.00
74708;BME280;63360;50.104;8.074;2023-04-16T08:47:11;97498.53;;;6.93;100.00
74708;BME280;63360;50.104;8.074;2023-04-16T08:49:42;97492.53;;;6.97;100.00
74708;BME280;63360;50.104;8.074;2023-04-16T08:52:13;97490.25;;;6.96;100.00
74708;BME280;63360;50.104;8.074;2023-04-16T08:57:25;97488.69;;;6.95;100.00
74708;BME280;63360;50.104;8.074;2023-04-16T08:59:56;97500.00;;;7.04;100.00
74708;BME280;63360;50.104;8.074;2023-04-16T09:02:24;97509.50;;;7.08;100.00
74708;BME280;63360;50.104;8.074;2023-04-16T09:04:52;97503.91;;;7.01;100.00
74708;BME280;63360;50.104;8.074;2023-04-16T09:07:19;97515.75;;;7.07;100.00
74708;BME280;63360;50.104;8.074;2023-04-16T09:09:47;97516.53;;;7.08;100.00
74708;BME280;63360;50.104;8.074;2023-04-16T09:12:16;97508.97;;;7.11;100.00
74708;BME280;63360;50.104;8.074;2023-04-16T09:14:42;97515.19;;;7.10;100.00
74708;BME280;63360;50.104;8.074;2023-04-16T09:17:12;97520.63;;;7.09;100.00
74708;BME280;63360;50.104;8.074;2023-04-16T09:19:39;97519.25;;;7.16;100.00
74708;BME280;63360;50.104;8.074;2023-04-16T09:22:06;97517.75;;;7.15;100.00
74708;BME280;63360;50.104;8.074;2023-04-16T09:24:33;97514.56;;;7.23;100.00
74708;BME280;63360;50.104;8.074;2023-04-16T09:26:59;97509.63;;;7.22;100.00
74708;BME280;63360;50.104;8.074;2023-04-16T09:29:37;97507.81;;;7.22;100.00
74708;BME280;63360;50.104;8.074;2023-04-16T09:32:08;97522.53;;;7.27;100.00
74708;BME280;63360;50.104;8.074;2023-04-16T09:35:00;97525.06;;;7.32;100.00
74708;BME280;63360;50.104;8.074;2023-04-16T09:37:28;97526.66;;;7.28;100.00
74708;BME280;63360;50.104;8.074;2023-04-16T09:39:59;97525.41;;;7.25;100.00
74708;BME280;63360;50.104;8.074;2023-04-16T09:42:28;97524.97;;;7.42;100.00
74708;BME280;63360;50.104;8.074;2023-04-16T09:44:55;97521.59;;;7.42;100.00
74708;BME280;63360;50.104;8.074;2023-04-16T09:47:38;97538.50;;;7.34;100.00
74708;BME280;63360;50.104;8.074;2023-04-16T09:50:06;97531.25;;;7.36;100.00
74708;BME280;63360;50.104;8.074;2023-04-16T09:52:35;97540.16;;;7.49;100.00
74708;BME280;63360;50.104;8.074;2023-04-16T09:55:03;97534.09;;;7.34;100.00
74708;BME280;63360;50.104;8.074;2023-04-16T09:57:29;97540.31;;;7.33;100.00
74708;BME280;63360;50.104;8.074;2023-04-16T10:00:04;97553.25;;;7.33;100.00
74708;BME280;63360;50.104;8.074;2023-04-16T10:02:31;97553.25;;;7.33;100.00
74708;BME280;63360;50.104;8.074;2023-04-16T10:05:01;97544.50;;;7.29;100.00
74708;BME280;63360;50.104;8.074;2023-04-16T10:07:35;97559.16;;;7.39;100.00
74708;BME280;63360;50.104;8.074;2023-04-16T10:10:02;97549.53;;;7.45;100.00
74708;BME280;63360;50.104;8.074;2023-04-16T10:12:30;97561.50;;;7.36;100.00
74708;BME280;63360;50.104;8.074;2023-04-16T10:14:58;97555.34;;;7.31;100.00
74708;BME280;63360;50.104;8.074;2023-04-16T10:17:25;97562.00;;;7.38;100.00
74708;BME280;63360;50.104;8.074;2023-04-16T10:19:53;97549.78;;;7.43;100.00
74708;BME280;63360;50.104;8.074;2023-04-16T10:22:19;97557.50;;;7.48;100.00
74708;BME280;63360;50.104;8.074;2023-04-16T10:24:46;97573.84;;;7.44;100.00
74708;BME280;63360;50.104;8.074;2023-04-16T10:27:13;97570.72;;;7.47;100.00
74708;BME280;63360;50.104;8.074;2023-04-16T10:29:42;97565.38;;;7.38;100.00
74708;BME280;63360;50.104;8.074;2023-04-16T10:32:09;97570.97;;;7.45;100.00
74708;BME280;63360;50.104;8.074;2023-04-16T10:34:35;97564.06;;;7.41;100.00
74708;BME280;63360;50.104;8.074;2023-04-16T10:37:02;97577.94;;;7.50;100.00
74708;BME280;63360;50.104;8.074;2023-04-16T10:39:28;97579.31;;;7.42;100.00
74708;BME280;63360;50.104;8.074;2023-04-16T10:42:11;97581.38;;;7.40;100.00
74708;BME280;63360;50.104;8.074;2023-04-16T10:44:38;97584.22;;;7.44;100.00
74708;BME280;63360;50.104;8.074;2023-04-16T10:47:11;97572.31;;;7.43;100.00
74708;BME280;63360;50.104;8.074;2023-04-16T10:49:39;97586.38;;;7.60;100.00
74708;BME280;63360;50.104;8.074;2023-04-16T10:52:13;97567.31;;;7.51;100.00
74708;BME280;63360;50.104;8.074;2023-04-16T10:54:42;97582.91;;;7.70;100.00
74708;BME280;63360;50.104;8.074;2023-04-16T10:57:13;97589.09;;;7.74;100.00
74708;BME280;63360;50.104;8.074;2023-04-16T10:59:42;97567.84;;;7.72;100.00
74708;BME280;63360;50.104;8.074;2023-04-16T11:02:14;97573.00;;;7.77;100.00
74708;BME280;63360;50.104;8.074;2023-04-16T11:04:43;97560.66;;;7.69;100.00
74708;BME280;63360;50.104;8.074;2023-04-16T11:12:24;97582.91;;;7.70;100.00
74708;BME280;63360;50.104;8.074;2023-04-16T11:14:57;97583.91;;;7.74;100.00
74708;BME280;63360;50.104;8.074;2023-04-16T11:17:27;97572.22;;;7.76;100.00
74708;BME280;63360;50.104;8.074;2023-04-16T11:19:54;97570.72;;;7.94;100.00
74708;BME280;63360;50.104;8.074;2023-04-16T11:22:21;97561.69;;;7.91;100.00
74708;BME280;63360;50.104;8.074;2023-04-16T11:24:53;97571.91;;;8.02;100.00
74708;BME280;63360;50.104;8.074;2023-04-16T11:27:20;97566.56;;;7.93;100.00
74708;BME280;63360;50.104;8.074;2023-04-16T11:29:57;97562.16;;;7.93;100.00
74708;BME280;63360;50.104;8.074;2023-04-16T11:32:24;97573.81;;;8.15;100.00
74708;BME280;63360;50.104;8.074;2023-04-16T11:34:51;97585.91;;;8.24;100.00
74708;BME280;63360;50.104;8.074;2023-04-16T11:37:19;97580.59;;;8.34;100.00
74708;BME280;63360;50.104;8.074;2023-04-16T11:39:51;97583.28;;;8.48;100.00
74708;BME280;63360;50.104;8.074;2023-04-16T11:42:19;97579.19;;;8.42;100.00
74708;BME280;63360;50.104;8.074;2023-04-16T11:44:52;97590.50;;;8.51;100.00
74708;BME280;63360;50.104;8.074;2023-04-16T11:47:19;97594.50;;;8.43;100.00
74708;BME280;63360;50.104;8.074;2023-04-16T11:49:46;97580.81;;;8.38;100.00
74708;BME280;63360;50.104;8.074;2023-04-16T11:52:14;97592.09;;;8.28;100.00
74708;BME280;63360;50.104;8.074;2023-04-16T11:54:49;97589.94;;;8.35;100.00
74708;BME280;63360;50.104;8.074;2023-04-16T11:57:23;97595.53;;;8.42;100.00
74708;BME280;63360;50.104;8.074;2023-04-16T11:59:49;97598.47;;;8.36;100.00
74708;BME280;63360;50.104;8.074;2023-04-16T12:05:13;97589.88;;;8.40;100.00
74708;BME280;63360;50.104;8.074;2023-04-16T12:07:50;97590.13;;;8.39;100.00
74708;BME280;63360;50.104;8.074;2023-04-16T12:10:17;97600.09;;;8.50;100.00
74708;BME280;63360;50.104;8.074;2023-04-16T12:12:43;97590.84;;;8.44;100.00
74708;BME280;63360;50.104;8.074;2023-04-16T12:15:09;97600.34;;;8.49;100.00
74708;BME280;63360;50.104;8.074;2023-04-16T12:17:37;97603.66;;;8.54;100.00
74708;BME280;63360;50.104;8.074;2023-04-16T12:20:08;97600.78;;;8.56;100.00
74708;BME280;63360;50.104;8.074;2023-04-16T12:22:40;97605.91;;;8.42;100.00
74708;BME280;63360;50.104;8.074;2023-04-16T12:25:11;97595.38;;;8.52;100.00
74708;BME280;63360;50.104;8.074;2023-04-16T12:27:53;97602.53;;;8.61;100.00
74708;BME280;63360;50.104;8.074;2023-04-16T12:30:22;97600.25;;;8.59;100.00
74708;BME280;63360;50.104;8.074;2023-04-16T12:32:51;97594.13;;;8.69;99.92
74708;BME280;63360;50.104;8.074;2023-04-16T12:35:32;97605.50;;;8.73;98.25
74708;BME280;63360;50.104;8.074;2023-04-16T12:37:59;97602.75;;;8.83;98.76
74708;BME280;63360;50.104;8.074;2023-04-16T12:40:26;97588.22;;;8.82;97.17
74708;BME280;63360;50.104;8.074;2023-04-16T12:42:52;97599.44;;;8.96;97.89
74708;BME280;63360;50.104;8.074;2023-04-16T12:45:19;97581.97;;;9.01;97.17
74708;BME280;63360;50.104;8.074;2023-04-16T12:47:46;97581.09;;;9.06;95.38
74708;BME280;63360;50.104;8.074;2023-04-16T12:50:12;97582.53;;;8.98;95.25
74708;BME280;63360;50.104;8.074;2023-04-16T12:52:39;97603.88;;;9.09;96.27
74708;BME280;63360;50.104;8.074;2023-04-16T12:55:05;97597.94;;;9.08;96.61
74708;BME280;63360;50.104;8.074;2023-04-16T12:57:32;97598.00;;;9.03;96.14
74708;BME280;63360;50.104;8.074;2023-04-16T12:59:58;97582.88;;;8.92;96.41
74708;BME280;63360;50.104;8.074;2023-04-16T13:02:25;97587.03;;;8.93;96.66
74708;BME280;63360;50.104;8.074;2023-04-16T13:04:52;97585.59;;;9.00;97.19
74708;BME280;63360;50.104;8.074;2023-04-16T13:07:19;97590.47;;;9.21;94.88
74708;BME280;63360;50.104;8.074;2023-04-16T13:09:46;97583.25;;;9.18;95.25
74708;BME280;63360;50.104;8.074;2023-04-16T13:12:12;97584.41;;;9.25;93.98